sensor_id;sensor_type;location;lat;lon;timestamp;P1;durP1;ratioP1;P2;durP2;ratioP2
46899;SDS011;32647;49.382;7.078;2022-08-19T00:00:17;29.42;;;26.35;;
46899;SDS011;32647;49.382;7.078;2022-08-19T00:03:04;29.83;;;26.73;;
46899;SDS011;32647;49.382;7.078;2022-08-19T00:05:52;28.30;;;25.38;;
46899;SDS011;32647;49.382;7.078;2022-08-19T00:08:38;29.15;;;24.75;;
46899;SDS011;32647;49.382;7.078;2022-08-19T00:11:24;30.65;;;27.33;;
46899;SDS011;32647;49.382;7.078;2022-08-19T00:14:13;29.95;;;25.75;;
46899;SDS011;32647;49.382;7.078;2022-08-19T00:17:00;31.02;;;26.40;;
46899;SDS011;32647;49.382;7.078;2022-08-19T00:19:47;32.03;;;28.52;;
46899;SDS011;32647;49.382;7.078;2022-08-19T00:22:33;30.98;;;27.73;;
46899;SDS011;32647;49.382;7.078;2022-08-19T00:25:19;30.52;;;27.23;;
46899;SDS011;32647;49.382;7.078;2022-08-19T00:28:05;33.92;;;29.02;;
46899;SDS011;32647;49.382;7.078;2022-08-19T00:30:51;35.03;;;26.65;;
46899;SDS011;32647;49.382;7.078;2022-08-19T00:33:38;32.50;;;28.13;;
46899;SDS011;32647;49.382;7.078;2022-08-19T00:36:24;30.98;;;26.45;;
46899;SDS011;32647;49.382;7.078;2022-08-19T00:39:11;33.13;;;28.45;;
46899;SDS011;32647;49.382;7.078;2022-08-19T00:41:57;32.88;;;28.83;;
46899;SDS011;32647;49.382;7.078;2022-08-19T00:44:44;33.83;;;28.95;;
46899;SDS011;32647;49.382;7.078;2022-08-19T00:47:30;32.40;;;27.95;;
46899;SDS011;32647;49.382;7.078;2022-08-19T00:50:17;29.80;;;26.05;;
46899;SDS011;32647;49.382;7.078;2022-08-19T00:53:06;31.88;;;27.83;;
46899;SDS011;32647;49.382;7.078;2022-08-19T00:55:53;29.67;;;26.52;;
46899;SDS011;32647;49.382;7.078;2022-08-19T00:58:42;31.45;;;28.17;;
46899;SDS011;32647;49.382;7.078;2022-08-19T01:01:29;32.90;;;29.40;;
46899;SDS011;32647;49.382;7.078;2022-08-19T01:04:15;33.92;;;28.73;;
46899;SDS011;32647;49.382;7.078;2022-08-19T01:07:01;31.20;;;27.90;;
46899;SDS011;32647;49.382;7.078;2022-08-19T01:09:47;31.20;;;27.88;;
46899;SDS011;32647;49.382;7.078;2022-08-19T01:12:34;32.95;;;28.38;;
46899;SDS011;32647;49.382;7.078;2022-08-19T01:15:29;30.98;;;27.23;;
46899;SDS011;32647;49.382;7.078;2022-08-19T01:18:18;32.08;;;28.55;;
46899;SDS011;32647;49.382;7.078;2022-08-19T01:21:07;32.00;;;28.35;;
46899;SDS011;32647;49.382;7.078;2022-08-19T01:24:03;35.03;;;28.30;;
46899;SDS011;32647;49.382;7.078;2022-08-19T01:26:49;33.72;;;29.08;;
46899;SDS011;32647;49.382;7.078;2022-08-19T01:29:36;32.42;;;28.92;;
46899;SDS011;32647;49.382;7.078;2022-08-19T01:32:25;32.95;;;28.75;;
46899;SDS011;32647;49.382;7.078;2022-08-19T01:35:12;31.77;;;28.45;;
46899;SDS011;32647;49.382;7.078;2022-08-19T01:38:00;37.40;;;30.55;;
46899;SDS011;32647;49.382;7.078;2022-08-19T01:40:53;32.45;;;28.63;;
46899;SDS011;32647;49.382;7.078;2022-08-19T01:43:39;32.95;;;26.38;;
46899;SDS011;32647;49.382;7.078;2022-08-19T01:46:25;30.00;;;26.55;;
46899;SDS011;32647;49.382;7.078;2022-08-19T01:49:11;28.08;;;25.15;;
46899;SDS011;32647;49.382;7.078;2022-08-19T01:51:59;30.88;;;26.02;;
46899;SDS011;32647;49.382;7.078;2022-08-19T01:54:45;28.58;;;25.58;;
46899;SDS011;32647;49.382;7.078;2022-08-19T01:57:31;29.15;;;25.02;;
46899;SDS011;32647;49.382;7.078;2022-08-19T02:00:18;30.73;;;26.48;;
46899;SDS011;32647;49.382;7.078;2022-08-19T02:03:07;30.45;;;27.20;;
46899;SDS011;32647;49.382;7.078;2022-08-19T02:05:55;29.98;;;26.77;;
46899;SDS011;32647;49.382;7.078;2022-08-19T02:08:44;30.10;;;27.02;;
46899;SDS011;32647;49.382;7.078;2022-08-19T02:11:32;30.10;;;26.10;;
46899;SDS011;32647;49.382;7.078;2022-08-19T02:14:20;29.23;;;26.23;;
46899;SDS011;32647;49.382;7.078;2022-08-19T02:17:06;31.10;;;27.65;;
46899;SDS011;32647;49.382;7.078;2022-08-19T02:19:52;30.63;;;27.40;;
46899;SDS011;32647;49.382;7.078;2022-08-19T02:22:38;37.80;;;29.17;;
46899;SDS011;32647;49.382;7.078;2022-08-19T02:25:25;34.20;;;30.10;;
46899;SDS011;32647;49.382;7.078;2022-08-19T02:28:12;35.60;;;29.70;;
46899;SDS011;32647;49.382;7.078;2022-08-19T02:30:58;37.15;;;30.50;;
46899;SDS011;32647;49.382;7.078;2022-08-19T02:33:46;38.72;;;31.13;;
46899;SDS011;32647;49.382;7.078;2022-08-19T02:36:32;38.05;;;31.15;;
46899;SDS011;32647;49.382;7.078;2022-08-19T02:39:18;36.95;;;29.58;;
46899;SDS011;32647;49.382;7.078;2022-08-19T02:42:04;39.63;;;30.38;;
46899;SDS011;32647;49.382;7.078;2022-08-19T02:44:51;36.70;;;30.85;;
46899;SDS011;32647;49.382;7.078;2022-08-19T02:47:40;35.03;;;29.65;;
46899;SDS011;32647;49.382;7.078;2022-08-19T02:50:28;33.65;;;30.08;;
46899;SDS011;32647;49.382;7.078;2022-08-19T02:53:14;35.10;;;29.85;;
46899;SDS011;32647;49.382;7.078;2022-08-19T02:56:00;37.20;;;29.98;;
46899;SDS011;32647;49.382;7.078;2022-08-19T02:58:46;35.75;;;29.50;;
46899;SDS011;32647;49.382;7.078;2022-08-19T03:01:33;32.95;;;28.50;;
46899;SDS011;32647;49.382;7.078;2022-08-19T03:04:19;31.98;;;28.58;;
46899;SDS011;32647;49.382;7.078;2022-08-19T03:07:05;32.50;;;27.58;;
46899;SDS011;32647;49.382;7.078;2022-08-19T03:09:51;33.63;;;29.33;;
46899;SDS011;32647;49.382;7.078;2022-08-19T03:12:38;35.22;;;29.55;;
46899;SDS011;32647;49.382;7.078;2022-08-19T03:15:24;36.90;;;32.00;;
46899;SDS011;32647;49.382;7.078;2022-08-19T03:18:10;33.88;;;27.20;;
46899;SDS011;32647;49.382;7.078;2022-08-19T03:20:57;36.80;;;29.50;;
46899;SDS011;32647;49.382;7.078;2022-08-19T03:23:43;32.22;;;28.83;;
46899;SDS011;32647;49.382;7.078;2022-08-19T03:26:30;39.40;;;32.47;;
46899;SDS011;32647;49.382;7.078;2022-08-19T03:29:16;36.35;;;29.83;;
46899;SDS011;32647;49.382;7.078;2022-08-19T03:32:05;36.45;;;30.75;;
46899;SDS011;32647;49.382;7.078;2022-08-19T03:34:52;37.55;;;31.42;;
46899;SDS011;32647;49.382;7.078;2022-08-19T03:37:47;36.83;;;30.88;;
46899;SDS011;32647;49.382;7.078;2022-08-19T03:40:36;35.15;;;30.20;;
46899;SDS011;32647;49.382;7.078;2022-08-19T03:43:22;34.50;;;30.35;;
46899;SDS011;32647;49.382;7.078;2022-08-19T03:46:09;39.60;;;31.48;;
46899;SDS011;32647;49.382;7.078;2022-08-19T03:48:58;36.97;;;30.38;;
46899;SDS011;32647;49.382;7.078;2022-08-19T03:51:48;35.80;;;29.80;;
46899;SDS011;32647;49.382;7.078;2022-08-19T03:54:35;31.13;;;27.15;;
46899;SDS011;32647;49.382;7.078;2022-08-19T03:57:23;38.30;;;30.45;;
46899;SDS011;32647;49.382;7.078;2022-08-19T04:00:09;37.92;;;30.88;;
46899;SDS011;32647;49.382;7.078;2022-08-19T04:02:56;36.90;;;30.25;;
46899;SDS011;32647;49.382;7.078;2022-08-19T04:05:42;39.58;;;32.20;;
46899;SDS011;32647;49.382;7.078;2022-08-19T04:08:28;34.83;;;31.02;;
46899;SDS011;32647;49.382;7.078;2022-08-19T04:11:15;32.78;;;29.23;;
46899;SDS011;32647;49.382;7.078;2022-08-19T04:14:07;39.40;;;30.42;;
46899;SDS011;32647;49.382;7.078;2022-08-19T04:16:55;36.08;;;31.35;;
46899;SDS011;32647;49.382;7.078;2022-08-19T04:19:45;34.63;;;30.33;;
46899;SDS011;32647;49.382;7.078;2022-08-19T04:22:31;40.53;;;32.22;;
46899;SDS011;32647;49.382;7.078;2022-08-19T04:25:18;34.58;;;30.08;;
46899;SDS011;32647;49.382;7.078;2022-08-19T04:28:04;34.78;;;30.55;;
46899;SDS011;32647;49.382;7.078;2022-08-19T04:30:52;39.08;;;30.95;;
46899;SDS011;32647;49.382;7.078;2022-08-19T04:33:39;33.85;;;30.15;;
46899;SDS011;32647;49.382;7.078;2022-08-19T04:36:39;42.17;;;32.67;;
46899;SDS011;32647;49.382;7.078;2022-08-19T04:39:28;38.00;;;30.40;;
46899;SDS011;32647;49.382;7.078;2022-08-19T04:42:34;37.22;;;32.83;;
46899;SDS011;32647;49.382;7.078;2022-08-19T04:45:26;34.17;;;28.33;;
46899;SDS011;32647;49.382;7.078;2022-08-19T04:48:12;35.17;;;30.17;;
46899;SDS011;32647;49.382;7.078;2022-08-19T04:50:58;33.97;;;28.83;;
46899;SDS011;32647;49.382;7.078;2022-08-19T04:53:44;36.40;;;30.10;;
46899;SDS011;32647;49.382;7.078;2022-08-19T04:56:30;36.30;;;30.42;;
46899;SDS011;32647;49.382;7.078;2022-08-19T04:59:16;36.58;;;30.55;;
46899;SDS011;32647;49.382;7.078;2022-08-19T05:02:06;40.80;;;31.10;;
46899;SDS011;32647;49.382;7.078;2022-08-19T05:04:57;37.42;;;31.65;;
46899;SDS011;32647;49.382;7.078;2022-08-19T05:07:46;37.67;;;30.90;;
46899;SDS011;32647;49.382;7.078;2022-08-19T05:10:35;40.22;;;29.88;;
46899;SDS011;32647;49.382;7.078;2022-08-19T05:13:22;37.38;;;28.98;;
46899;SDS011;32647;49.382;7.078;2022-08-19T05:16:10;40.28;;;29.88;;
46899;SDS011;32647;49.382;7.078;2022-08-19T05:18:57;31.83;;;28.42;;
46899;SDS011;32647;49.382;7.078;2022-08-19T05:22:01;36.83;;;29.73;;
46899;SDS011;32647;49.382;7.078;2022-08-19T05:25:11;32.20;;;27.98;;
46899;SDS011;32647;49.382;7.078;2022-08-19T05:27:59;37.22;;;28.33;;
46899;SDS011;32647;49.382;7.078;2022-08-19T05:30:45;36.53;;;29.17;;
46899;SDS011;32647;49.382;7.078;2022-08-19T05:33:31;38.08;;;28.88;;
46899;SDS011;32647;49.382;7.078;2022-08-19T05:36:18;34.20;;;28.30;;
46899;SDS011;32647;49.382;7.078;2022-08-19T05:39:06;38.13;;;29.70;;
46899;SDS011;32647;49.382;7.078;2022-08-19T05:41:54;34.47;;;29.27;;
46899;SDS011;32647;49.382;7.078;2022-08-19T05:44:43;34.85;;;28.98;;
46899;SDS011;32647;49.382;7.078;2022-08-19T05:47:29;33.88;;;29.02;;
46899;SDS011;32647;49.382;7.078;2022-08-19T05:50:15;30.95;;;26.95;;
46899;SDS011;32647;49.382;7.078;2022-08-19T05:53:02;31.75;;;26.67;;
46899;SDS011;32647;49.382;7.078;2022-08-19T05:55:49;33.08;;;28.27;;
46899;SDS011;32647;49.382;7.078;2022-08-19T05:58:35;29.58;;;25.70;;
46899;SDS011;32647;49.382;7.078;2022-08-19T06:01:22;30.08;;;26.92;;
46899;SDS011;32647;49.382;7.078;2022-08-19T06:04:08;32.15;;;26.85;;
46899;SDS011;32647;49.382;7.078;2022-08-19T06:06:54;28.98;;;25.13;;
46899;SDS011;32647;49.382;7.078;2022-08-19T06:12:19;28.48;;;25.58;;
46899;SDS011;32647;49.382;7.078;2022-08-19T06:15:07;28.73;;;25.63;;
46899;SDS011;32647;49.382;7.078;2022-08-19T06:17:55;28.88;;;25.45;;
46899;SDS011;32647;49.382;7.078;2022-08-19T06:20:41;29.95;;;26.75;;
46899;SDS011;32647;49.382;7.078;2022-08-19T06:23:27;27.83;;;23.55;;
46899;SDS011;32647;49.382;7.078;2022-08-19T06:26:14;27.13;;;24.10;;
46899;SDS011;32647;49.382;7.078;2022-08-19T06:29:01;23.83;;;21.42;;
46899;SDS011;32647;49.382;7.078;2022-08-19T06:31:51;25.60;;;21.50;;
46899;SDS011;32647;49.382;7.078;2022-08-19T06:34:38;27.60;;;24.70;;
46899;SDS011;32647;49.382;7.078;2022-08-19T06:37:24;24.45;;;21.95;;
46899;SDS011;32647;49.382;7.078;2022-08-19T06:40:10;25.88;;;23.08;;
46899;SDS011;32647;49.382;7.078;2022-08-19T06:42:57;24.23;;;21.63;;
46899;SDS011;32647;49.382;7.078;2022-08-19T06:45:45;22.00;;;19.80;;
46899;SDS011;32647;49.382;7.078;2022-08-19T06:48:32;22.05;;;19.85;;
46899;SDS011;32647;49.382;7.078;2022-08-19T06:51:18;26.88;;;21.52;;
46899;SDS011;32647;49.382;7.078;2022-08-19T06:54:05;21.80;;;19.55;;
46899;SDS011;32647;49.382;7.078;2022-08-19T06:56:51;29.10;;;25.92;;
46899;SDS011;32647;49.382;7.078;2022-08-19T06:59:38;22.92;;;19.67;;
46899;SDS011;32647;49.382;7.078;2022-08-19T07:02:24;21.08;;;19.05;;
46899;SDS011;32647;49.382;7.078;2022-08-19T07:05:11;21.42;;;19.30;;
46899;SDS011;32647;49.382;7.078;2022-08-19T07:07:57;23.25;;;18.67;;
46899;SDS011;32647;49.382;7.078;2022-08-19T07:10:44;21.30;;;18.40;;
46899;SDS011;32647;49.382;7.078;2022-08-19T07:13:31;21.35;;;19.08;;
46899;SDS011;32647;49.382;7.078;2022-08-19T07:16:19;20.90;;;18.77;;
46899;SDS011;32647;49.382;7.078;2022-08-19T07:19:05;19.38;;;17.08;;
46899;SDS011;32647;49.382;7.078;2022-08-19T07:21:52;19.00;;;17.20;;
46899;SDS011;32647;49.382;7.078;2022-08-19T07:24:39;18.05;;;16.25;;
46899;SDS011;32647;49.382;7.078;2022-08-19T07:27:26;18.63;;;16.75;;
46899;SDS011;32647;49.382;7.078;2022-08-19T07:30:12;20.20;;;17.08;;
46899;SDS011;32647;49.382;7.078;2022-08-19T07:32:58;17.50;;;15.70;;
46899;SDS011;32647;49.382;7.078;2022-08-19T07:35:44;23.60;;;17.15;;
46899;SDS011;32647;49.382;7.078;2022-08-19T07:38:35;18.15;;;16.52;;
46899;SDS011;32647;49.382;7.078;2022-08-19T07:41:29;19.75;;;17.40;;
46899;SDS011;32647;49.382;7.078;2022-08-19T07:44:16;16.70;;;15.18;;
46899;SDS011;32647;49.382;7.078;2022-08-19T07:47:05;21.42;;;17.92;;
46899;SDS011;32647;49.382;7.078;2022-08-19T07:49:52;17.77;;;15.98;;
46899;SDS011;32647;49.382;7.078;2022-08-19T07:52:38;18.05;;;16.15;;
46899;SDS011;32647;49.382;7.078;2022-08-19T07:55:25;19.02;;;17.10;;
46899;SDS011;32647;49.382;7.078;2022-08-19T07:58:13;18.27;;;16.38;;
46899;SDS011;32647;49.382;7.078;2022-08-19T08:01:01;16.83;;;14.90;;
46899;SDS011;32647;49.382;7.078;2022-08-19T08:03:50;16.80;;;14.75;;
46899;SDS011;32647;49.382;7.078;2022-08-19T08:06:56;16.08;;;14.50;;
46899;SDS011;32647;49.382;7.078;2022-08-19T08:10:01;16.63;;;14.98;;
46899;SDS011;32647;49.382;7.078;2022-08-19T08:12:48;15.80;;;14.20;;
46899;SDS011;32647;49.382;7.078;2022-08-19T08:15:44;15.80;;;13.38;;
46899;SDS011;32647;49.382;7.078;2022-08-19T08:18:33;15.80;;;14.32;;
46899;SDS011;32647;49.382;7.078;2022-08-19T08:21:26;16.92;;;14.23;;
46899;SDS011;32647;49.382;7.078;2022-08-19T08:24:12;14.25;;;12.85;;
46899;SDS011;32647;49.382;7.078;2022-08-19T08:26:59;16.27;;;14.07;;
46899;SDS011;32647;49.382;7.078;2022-08-19T08:29:45;16.33;;;14.38;;
46899;SDS011;32647;49.382;7.078;2022-08-19T08:32:34;16.13;;;13.35;;
46899;SDS011;32647;49.382;7.078;2022-08-19T08:35:22;15.35;;;13.93;;
46899;SDS011;32647;49.382;7.078;2022-08-19T08:38:11;14.10;;;12.80;;
46899;SDS011;32647;49.382;7.078;2022-08-19T08:41:01;14.23;;;12.82;;
46899;SDS011;32647;49.382;7.078;2022-08-19T08:44:04;12.63;;;11.52;;
46899;SDS011;32647;49.382;7.078;2022-08-19T08:46:53;12.52;;;11.32;;
46899;SDS011;32647;49.382;7.078;2022-08-19T08:49:54;12.82;;;11.52;;
46899;SDS011;32647;49.382;7.078;2022-08-19T08:52:54;11.05;;;9.98;;
46899;SDS011;32647;49.382;7.078;2022-08-19T08:55:42;13.68;;;9.93;;
46899;SDS011;32647;49.382;7.078;2022-08-19T09:01:44;11.05;;;10.05;;
46899;SDS011;32647;49.382;7.078;2022-08-19T09:04:30;11.88;;;10.65;;
46899;SDS011;32647;49.382;7.078;2022-08-19T09:07:21;11.90;;;10.32;;
46899;SDS011;32647;49.382;7.078;2022-08-19T09:16:17;10.20;;;9.25;;
46899;SDS011;32647;49.382;7.078;2022-08-19T09:19:06;10.45;;;9.45;;
46899;SDS011;32647;49.382;7.078;2022-08-19T09:21:53;8.27;;;7.45;;
46899;SDS011;32647;49.382;7.078;2022-08-19T09:24:39;8.43;;;7.63;;
46899;SDS011;32647;49.382;7.078;2022-08-19T09:27:27;10.05;;;8.55;;
46899;SDS011;32647;49.382;7.078;2022-08-19T09:30:18;7.72;;;6.85;;
46899;SDS011;32647;49.382;7.078;2022-08-19T09:33:07;8.45;;;7.20;;
46899;SDS011;32647;49.382;7.078;2022-08-19T09:38:52;7.72;;;7.03;;
46899;SDS011;32647;49.382;7.078;2022-08-19T09:41:38;8.93;;;5.78;;
46899;SDS011;32647;49.382;7.078;2022-08-19T09:44:24;7.45;;;6.03;;
46899;SDS011;32647;49.382;7.078;2022-08-19T09:47:13;6.85;;;5.90;;
46899;SDS011;32647;49.382;7.078;2022-08-19T09:50:00;6.38;;;5.78;;
46899;SDS011;32647;49.382;7.078;2022-08-19T09:52:46;8.48;;;6.30;;
46899;SDS011;32647;49.382;7.078;2022-08-19T09:55:34;6.43;;;5.70;;
46899;SDS011;32647;49.382;7.078;2022-08-19T09:58:22;9.60;;;5.82;;
46899;SDS011;32647;49.382;7.078;2022-08-19T10:01:17;6.88;;;6.07;;
46899;SDS011;32647;49.382;7.078;2022-08-19T10:04:08;7.40;;;5.82;;
46899;SDS011;32647;49.382;7.078;2022-08-19T10:06:55;6.35;;;5.72;;
46899;SDS011;32647;49.382;7.078;2022-08-19T10:09:42;7.00;;;6.13;;
46899;SDS011;32647;49.382;7.078;2022-08-19T10:12:29;7.05;;;6.10;;
46899;SDS011;32647;49.382;7.078;2022-08-19T10:15:15;6.35;;;5.75;;
46899;SDS011;32647;49.382;7.078;2022-08-19T10:18:06;6.97;;;5.63;;
46899;SDS011;32647;49.382;7.078;2022-08-19T10:21:01;7.95;;;5.47;;
46899;SDS011;32647;49.382;7.078;2022-08-19T10:23:57;6.80;;;5.00;;
46899;SDS011;32647;49.382;7.078;2022-08-19T10:26:45;7.00;;;5.35;;
46899;SDS011;32647;49.382;7.078;2022-08-19T10:29:33;6.15;;;5.10;;
46899;SDS011;32647;49.382;7.078;2022-08-19T10:32:19;5.38;;;4.88;;
46899;SDS011;32647;49.382;7.078;2022-08-19T10:35:07;5.45;;;4.95;;
46899;SDS011;32647;49.382;7.078;2022-08-19T10:37:53;5.35;;;4.78;;
46899;SDS011;32647;49.382;7.078;2022-08-19T10:40:39;5.50;;;4.72;;
46899;SDS011;32647;49.382;7.078;2022-08-19T10:43:27;7.75;;;5.00;;
46899;SDS011;32647;49.382;7.078;2022-08-19T10:46:13;6.03;;;5.10;;
46899;SDS011;32647;49.382;7.078;2022-08-19T10:49:03;5.50;;;5.10;;
46899;SDS011;32647;49.382;7.078;2022-08-19T10:51:50;5.88;;;5.28;;
46899;SDS011;32647;49.382;7.078;2022-08-19T10:54:54;6.03;;;5.32;;
46899;SDS011;32647;49.382;7.078;2022-08-19T10:57:59;5.60;;;5.10;;
46899;SDS011;32647;49.382;7.078;2022-08-19T11:00:50;5.43;;;5.00;;
46899;SDS011;32647;49.382;7.078;2022-08-19T11:03:41;6.60;;;5.18;;
46899;SDS011;32647;49.382;7.078;2022-08-19T11:06:27;6.22;;;5.60;;
46899;SDS011;32647;49.382;7.078;2022-08-19T11:09:16;6.90;;;5.82;;
46899;SDS011;32647;49.382;7.078;2022-08-19T11:12:10;5.68;;;5.18;;
46899;SDS011;32647;49.382;7.078;2022-08-19T11:15:00;7.65;;;5.20;;
46899;SDS011;32647;49.382;7.078;2022-08-19T11:17:54;5.80;;;5.30;;
46899;SDS011;32647;49.382;7.078;2022-08-19T11:23:26;7.32;;;5.80;;
46899;SDS011;32647;49.382;7.078;2022-08-19T11:26:13;6.45;;;5.85;;
46899;SDS011;32647;49.382;7.078;2022-08-19T11:29:00;6.13;;;5.20;;
46899;SDS011;32647;49.382;7.078;2022-08-19T11:31:47;5.22;;;4.72;;
46899;SDS011;32647;49.382;7.078;2022-08-19T11:34:34;6.28;;;5.38;;
46899;SDS011;32647;49.382;7.078;2022-08-19T11:37:21;5.32;;;4.93;;
46899;SDS011;32647;49.382;7.078;2022-08-19T11:40:08;6.80;;;4.85;;
46899;SDS011;32647;49.382;7.078;2022-08-19T11:42:57;4.88;;;4.47;;
46899;SDS011;32647;49.382;7.078;2022-08-19T11:45:43;5.00;;;4.60;;
46899;SDS011;32647;49.382;7.078;2022-08-19T11:48:29;5.18;;;4.60;;
46899;SDS011;32647;49.382;7.078;2022-08-19T11:51:16;5.00;;;4.38;;
46899;SDS011;32647;49.382;7.078;2022-08-19T11:54:04;4.90;;;4.38;;
46899;SDS011;32647;49.382;7.078;2022-08-19T11:56:51;5.60;;;4.80;;
46899;SDS011;32647;49.382;7.078;2022-08-19T11:59:37;6.55;;;4.60;;
46899;SDS011;32647;49.382;7.078;2022-08-19T12:02:23;5.13;;;4.68;;
46899;SDS011;32647;49.382;7.078;2022-08-19T12:05:10;6.50;;;5.10;;
46899;SDS011;32647;49.382;7.078;2022-08-19T12:07:56;5.50;;;5.10;;
46899;SDS011;32647;49.382;7.078;2022-08-19T12:10:42;6.13;;;5.63;;
46899;SDS011;32647;49.382;7.078;2022-08-19T12:13:31;7.53;;;6.25;;
46899;SDS011;32647;49.382;7.078;2022-08-19T12:16:22;7.57;;;6.50;;
46899;SDS011;32647;49.382;7.078;2022-08-19T12:19:09;7.25;;;6.53;;
46899;SDS011;32647;49.382;7.078;2022-08-19T12:22:00;8.45;;;5.93;;
46899;SDS011;32647;49.382;7.078;2022-08-19T12:24:48;6.75;;;6.15;;
46899;SDS011;32647;49.382;7.078;2022-08-19T12:27:36;7.22;;;6.43;;
46899;SDS011;32647;49.382;7.078;2022-08-19T12:30:23;9.65;;;6.88;;
46899;SDS011;32647;49.382;7.078;2022-08-19T12:33:09;7.97;;;6.50;;
46899;SDS011;32647;49.382;7.078;2022-08-19T12:35:55;8.48;;;6.70;;
46899;SDS011;32647;49.382;7.078;2022-08-19T12:38:49;20.85;;;7.22;;
46899;SDS011;32647;49.382;7.078;2022-08-19T12:41:39;8.30;;;6.28;;
46899;SDS011;32647;49.382;7.078;2022-08-19T12:44:25;6.43;;;5.82;;
46899;SDS011;32647;49.382;7.078;2022-08-19T12:47:12;12.90;;;6.30;;
46899;SDS011;32647;49.382;7.078;2022-08-19T12:50:02;12.00;;;6.10;;
46899;SDS011;32647;49.382;7.078;2022-08-19T12:52:49;9.05;;;6.05;;
46899;SDS011;32647;49.382;7.078;2022-08-19T12:55:38;7.40;;;6.80;;
46899;SDS011;32647;49.382;7.078;2022-08-19T12:58:25;8.18;;;7.38;;
46899;SDS011;32647;49.382;7.078;2022-08-19T13:01:13;9.98;;;7.75;;
46899;SDS011;32647;49.382;7.078;2022-08-19T13:04:00;8.95;;;7.65;;
46899;SDS011;32647;49.382;7.078;2022-08-19T13:06:46;9.07;;;7.13;;
46899;SDS011;32647;49.382;7.078;2022-08-19T13:09:32;13.38;;;6.93;;
46899;SDS011;32647;49.382;7.078;2022-08-19T13:12:18;7.70;;;6.90;;
46899;SDS011;32647;49.382;7.078;2022-08-19T13:15:05;6.93;;;6.30;;
46899;SDS011;32647;49.382;7.078;2022-08-19T13:17:52;8.23;;;6.50;;
46899;SDS011;32647;49.382;7.078;2022-08-19T13:20:39;10.82;;;6.70;;
46899;SDS011;32647;49.382;7.078;2022-08-19T13:23:27;7.70;;;7.00;;
46899;SDS011;32647;49.382;7.078;2022-08-19T13:26:13;12.27;;;7.28;;
46899;SDS011;32647;49.382;7.078;2022-08-19T13:29:00;8.20;;;7.03;;
46899;SDS011;32647;49.382;7.078;2022-08-19T13:35:09;8.95;;;7.43;;
46899;SDS011;32647;49.382;7.078;2022-08-19T13:37:55;8.25;;;7.03;;
46899;SDS011;32647;49.382;7.078;2022-08-19T13:40:41;9.45;;;6.93;;
46899;SDS011;32647;49.382;7.078;2022-08-19T13:43:27;9.15;;;5.88;;
46899;SDS011;32647;49.382;7.078;2022-08-19T13:46:14;7.43;;;6.72;;
46899;SDS011;32647;49.382;7.078;2022-08-19T13:49:00;6.82;;;6.20;;
46899;SDS011;32647;49.382;7.078;2022-08-19T13:51:46;13.95;;;6.68;;
46899;SDS011;32647;49.382;7.078;2022-08-19T13:54:33;6.53;;;5.90;;
46899;SDS011;32647;49.382;7.078;2022-08-19T13:57:19;7.07;;;5.97;;
46899;SDS011;32647;49.382;7.078;2022-08-19T14:00:06;10.27;;;6.13;;
46899;SDS011;32647;49.382;7.078;2022-08-19T14:02:58;7.90;;;5.53;;
46899;SDS011;32647;49.382;7.078;2022-08-19T14:05:44;5.70;;;5.20;;
46899;SDS011;32647;49.382;7.078;2022-08-19T14:08:31;5.85;;;5.07;;
46899;SDS011;32647;49.382;7.078;2022-08-19T14:11:17;8.23;;;5.35;;
46899;SDS011;32647;49.382;7.078;2022-08-19T14:14:04;7.15;;;5.18;;
46899;SDS011;32647;49.382;7.078;2022-08-19T14:16:50;5.47;;;4.97;;
46899;SDS011;32647;49.382;7.078;2022-08-19T14:19:37;11.13;;;5.63;;
46899;SDS011;32647;49.382;7.078;2022-08-19T14:22:23;6.78;;;5.15;;
46899;SDS011;32647;49.382;7.078;2022-08-19T14:25:11;16.55;;;5.45;;
46899;SDS011;32647;49.382;7.078;2022-08-19T14:28:05;5.43;;;4.22;;
46899;SDS011;32647;49.382;7.078;2022-08-19T14:30:52;6.18;;;4.70;;
46899;SDS011;32647;49.382;7.078;2022-08-19T14:33:39;6.35;;;4.70;;
46899;SDS011;32647;49.382;7.078;2022-08-19T14:36:25;6.38;;;4.72;;
46899;SDS011;32647;49.382;7.078;2022-08-19T14:39:11;4.20;;;3.80;;
46899;SDS011;32647;49.382;7.078;2022-08-19T14:41:57;6.78;;;4.30;;
46899;SDS011;32647;49.382;7.078;2022-08-19T14:44:44;5.07;;;4.40;;
46899;SDS011;32647;49.382;7.078;2022-08-19T14:47:30;10.80;;;4.85;;
46899;SDS011;32647;49.382;7.078;2022-08-19T14:50:16;6.10;;;3.80;;
46899;SDS011;32647;49.382;7.078;2022-08-19T14:53:03;6.38;;;3.85;;
46899;SDS011;32647;49.382;7.078;2022-08-19T14:55:51;4.00;;;3.15;;
46899;SDS011;32647;49.382;7.078;2022-08-19T14:58:38;4.28;;;3.83;;
46899;SDS011;32647;49.382;7.078;2022-08-19T15:01:28;6.80;;;4.05;;
46899;SDS011;32647;49.382;7.078;2022-08-19T15:04:14;6.75;;;3.95;;
46899;SDS011;32647;49.382;7.078;2022-08-19T15:07:00;4.00;;;3.65;;
46899;SDS011;32647;49.382;7.078;2022-08-19T15:09:49;4.15;;;3.75;;
46899;SDS011;32647;49.382;7.078;2022-08-19T15:12:38;5.57;;;3.28;;
46899;SDS011;32647;49.382;7.078;2022-08-19T15:15:25;5.78;;;4.10;;
46899;SDS011;32647;49.382;7.078;2022-08-19T15:18:11;7.55;;;3.97;;
46899;SDS011;32647;49.382;7.078;2022-08-19T15:20:58;4.28;;;3.80;;
46899;SDS011;32647;49.382;7.078;2022-08-19T15:23:45;3.95;;;3.63;;
46899;SDS011;32647;49.382;7.078;2022-08-19T15:26:34;4.75;;;3.80;;
46899;SDS011;32647;49.382;7.078;2022-08-19T15:29:20;4.22;;;3.83;;
46899;SDS011;32647;49.382;7.078;2022-08-19T15:32:09;4.13;;;3.72;;
46899;SDS011;32647;49.382;7.078;2022-08-19T15:34:56;4.18;;;3.65;;
46899;SDS011;32647;49.382;7.078;2022-08-19T15:37:42;3.95;;;3.63;;
46899;SDS011;32647;49.382;7.078;2022-08-19T15:40:30;3.88;;;3.50;;
46899;SDS011;32647;49.382;7.078;2022-08-19T15:43:16;4.18;;;3.75;;
46899;SDS011;32647;49.382;7.078;2022-08-19T15:46:03;4.55;;;3.90;;
46899;SDS011;32647;49.382;7.078;2022-08-19T15:48:50;5.47;;;3.88;;
46899;SDS011;32647;49.382;7.078;2022-08-19T15:51:37;5.30;;;3.83;;
46899;SDS011;32647;49.382;7.078;2022-08-19T15:54:26;3.63;;;3.33;;
46899;SDS011;32647;49.382;7.078;2022-08-19T15:57:12;5.55;;;3.90;;
46899;SDS011;32647;49.382;7.078;2022-08-19T16:00:07;4.82;;;4.40;;
46899;SDS011;32647;49.382;7.078;2022-08-19T16:03:12;6.13;;;5.53;;
46899;SDS011;32647;49.382;7.078;2022-08-19T16:06:18;7.40;;;5.10;;
46899;SDS011;32647;49.382;7.078;2022-08-19T16:09:13;6.00;;;5.40;;
46899;SDS011;32647;49.382;7.078;2022-08-19T16:12:02;6.55;;;5.68;;
46899;SDS011;32647;49.382;7.078;2022-08-19T16:14:50;8.60;;;6.00;;
46899;SDS011;32647;49.382;7.078;2022-08-19T16:17:36;7.40;;;5.65;;
46899;SDS011;32647;49.382;7.078;2022-08-19T16:20:22;6.32;;;5.53;;
46899;SDS011;32647;49.382;7.078;2022-08-19T16:23:18;11.30;;;5.78;;
46899;SDS011;32647;49.382;7.078;2022-08-19T16:26:04;5.43;;;4.93;;
46899;SDS011;32647;49.382;7.078;2022-08-19T16:28:50;6.32;;;5.72;;
46899;SDS011;32647;49.382;7.078;2022-08-19T16:31:36;9.52;;;4.78;;
46899;SDS011;32647;49.382;7.078;2022-08-19T16:34:23;5.70;;;5.10;;
46899;SDS011;32647;49.382;7.078;2022-08-19T16:37:10;8.45;;;5.07;;
46899;SDS011;32647;49.382;7.078;2022-08-19T16:39:57;5.10;;;4.60;;
46899;SDS011;32647;49.382;7.078;2022-08-19T16:42:43;6.90;;;4.38;;
46899;SDS011;32647;49.382;7.078;2022-08-19T16:45:29;4.55;;;4.10;;
46899;SDS011;32647;49.382;7.078;2022-08-19T16:48:15;4.95;;;4.07;;
46899;SDS011;32647;49.382;7.078;2022-08-19T16:51:01;3.50;;;3.10;;
46899;SDS011;32647;49.382;7.078;2022-08-19T16:53:50;3.03;;;2.83;;
46899;SDS011;32647;49.382;7.078;2022-08-19T16:56:37;4.22;;;3.10;;